sensor_id;sensor_type;location;lat;lon;timestamp;P1;durP1;ratioP1;P2;durP2;ratioP2
76867;SDS011;66168;45.478;11.060;2024-01-30T00:01:24;13.00;;;8.00;;
76867;SDS011;66168;45.478;11.060;2024-01-30T00:04:09;19.40;;;10.70;;
76867;SDS011;66168;45.478;11.060;2024-01-30T00:06:36;18.60;;;11.10;;
76867;SDS011;66168;45.478;11.060;2024-01-30T00:09:03;16.10;;;9.80;;
76867;SDS011;66168;45.478;11.060;2024-01-30T00:11:29;15.80;;;8.80;;
76867;SDS011;66168;45.478;11.060;2024-01-30T00:13:56;15.60;;;9.60;;
76867;SDS011;66168;45.478;11.060;2024-01-30T00:16:23;12.50;;;7.80;;
76867;SDS011;66168;45.478;11.060;2024-01-30T00:18:52;9.40;;;7.20;;
76867;SDS011;66168;45.478;11.060;2024-01-30T00:21:19;8.80;;;6.00;;
76867;SDS011;66168;45.478;11.060;2024-01-30T00:23:47;12.90;;;7.60;;
76867;SDS011;66168;45.478;11.060;2024-01-30T00:26:14;11.80;;;7.10;;
76867;SDS011;66168;45.478;11.060;2024-01-30T00:28:42;14.80;;;8.40;;
76867;SDS011;66168;45.478;11.060;2024-01-30T00:31:09;13.00;;;6.10;;
76867;SDS011;66168;45.478;11.060;2024-01-30T00:33:39;12.80;;;6.50;;
76867;SDS011;66168;45.478;11.060;2024-01-30T00:36:08;14.30;;;6.20;;
76867;SDS011;66168;45.478;11.060;2024-01-30T00:38:46;12.70;;;6.50;;
76867;SDS011;66168;45.478;11.060;2024-01-30T00:41:33;11.40;;;5.20;;
76867;SDS011;66168;45.478;11.060;2024-01-30T00:44:00;8.40;;;6.00;;
76867;SDS011;66168;45.478;11.060;2024-01-30T00:46:26;8.70;;;4.70;;
76867;SDS011;66168;45.478;11.060;2024-01-30T00:48:53;8.50;;;5.70;;
76867;SDS011;66168;45.478;11.060;2024-01-30T00:51:21;8.70;;;5.30;;
76867;SDS011;66168;45.478;11.060;2024-01-30T00:53:47;10.70;;;6.40;;
76867;SDS011;66168;45.478;11.060;2024-01-30T00:56:14;9.00;;;5.70;;
76867;SDS011;66168;45.478;11.060;2024-01-30T00:58:45;8.60;;;5.10;;
76867;SDS011;66168;45.478;11.060;2024-01-30T01:01:11;8.40;;;4.90;;
76867;SDS011;66168;45.478;11.060;2024-01-30T01:03:39;7.80;;;5.10;;
76867;SDS011;66168;45.478;11.060;2024-01-30T01:06:09;7.80;;;5.00;;
76867;SDS011;66168;45.478;11.060;2024-01-30T01:08:36;7.50;;;5.30;;
76867;SDS011;66168;45.478;11.060;2024-01-30T01:11:03;6.80;;;4.00;;
76867;SDS011;66168;45.478;11.060;2024-01-30T01:13:30;12.80;;;8.40;;
76867;SDS011;66168;45.478;11.060;2024-01-30T01:15:57;10.90;;;7.10;;
76867;SDS011;66168;45.478;11.060;2024-01-30T01:18:24;10.70;;;6.50;;
76867;SDS011;66168;45.478;11.060;2024-01-30T01:20:51;10.90;;;6.70;;
76867;SDS011;66168;45.478;11.060;2024-01-30T01:23:18;10.30;;;7.70;;
76867;SDS011;66168;45.478;11.060;2024-01-30T01:25:45;14.60;;;9.80;;
76867;SDS011;66168;45.478;11.060;2024-01-30T01:28:12;9.90;;;7.40;;
76867;SDS011;66168;45.478;11.060;2024-01-30T01:30:39;23.90;;;13.60;;
76867;SDS011;66168;45.478;11.060;2024-01-30T01:33:06;21.30;;;12.00;;
76867;SDS011;66168;45.478;11.060;2024-01-30T01:35:33;15.70;;;9.70;;
76867;SDS011;66168;45.478;11.060;2024-01-30T01:38:00;8.70;;;6.60;;
76867;SDS011;66168;45.478;11.060;2024-01-30T01:40:27;10.90;;;7.90;;
76867;SDS011;66168;45.478;11.060;2024-01-30T01:42:55;14.50;;;8.80;;
76867;SDS011;66168;45.478;11.060;2024-01-30T01:45:22;14.70;;;8.80;;
76867;SDS011;66168;45.478;11.060;2024-01-30T01:47:52;13.20;;;8.20;;
76867;SDS011;66168;45.478;11.060;2024-01-30T01:50:21;10.50;;;7.30;;
76867;SDS011;66168;45.478;11.060;2024-01-30T01:52:49;10.60;;;7.00;;
76867;SDS011;66168;45.478;11.060;2024-01-30T01:55:18;10.70;;;8.30;;
76867;SDS011;66168;45.478;11.060;2024-01-30T01:57:49;13.00;;;9.10;;
76867;SDS011;66168;45.478;11.060;2024-01-30T02:00:16;20.80;;;11.70;;
76867;SDS011;66168;45.478;11.060;2024-01-30T02:02:45;22.30;;;13.50;;
76867;SDS011;66168;45.478;11.060;2024-01-30T02:05:14;19.80;;;12.50;;
76867;SDS011;66168;45.478;11.060;2024-01-30T02:07:42;31.30;;;15.90;;
76867;SDS011;66168;45.478;11.060;2024-01-30T02:10:10;19.10;;;12.10;;
76867;SDS011;66168;45.478;11.060;2024-01-30T02:12:37;22.30;;;13.10;;
76867;SDS011;66168;45.478;11.060;2024-01-30T02:15:05;19.30;;;11.00;;
76867;SDS011;66168;45.478;11.060;2024-01-30T02:17:34;20.80;;;10.80;;
76867;SDS011;66168;45.478;11.060;2024-01-30T02:20:01;20.30;;;11.10;;
76867;SDS011;66168;45.478;11.060;2024-01-30T02:22:28;20.40;;;10.90;;
76867;SDS011;66168;45.478;11.060;2024-01-30T02:24:55;16.20;;;9.20;;
76867;SDS011;66168;45.478;11.060;2024-01-30T02:27:22;10.30;;;7.40;;
76867;SDS011;66168;45.478;11.060;2024-01-30T02:29:49;16.00;;;10.40;;
76867;SDS011;66168;45.478;11.060;2024-01-30T02:32:16;15.50;;;10.60;;
76867;SDS011;66168;45.478;11.060;2024-01-30T02:34:43;14.20;;;9.40;;
76867;SDS011;66168;45.478;11.060;2024-01-30T02:37:10;15.60;;;10.10;;
76867;SDS011;66168;45.478;11.060;2024-01-30T02:39:37;12.90;;;8.30;;
76867;SDS011;66168;45.478;11.060;2024-01-30T02:42:04;18.00;;;9.90;;
76867;SDS011;66168;45.478;11.060;2024-01-30T02:44:31;18.00;;;10.50;;
76867;SDS011;66168;45.478;11.060;2024-01-30T02:46:58;14.80;;;8.20;;
76867;SDS011;66168;45.478;11.060;2024-01-30T02:49:25;12.00;;;7.20;;
76867;SDS011;66168;45.478;11.060;2024-01-30T02:51:53;13.60;;;8.30;;
76867;SDS011;66168;45.478;11.060;2024-01-30T02:54:20;12.70;;;8.50;;
76867;SDS011;66168;45.478;11.060;2024-01-30T02:56:47;20.20;;;11.60;;
76867;SDS011;66168;45.478;11.060;2024-01-30T02:59:15;23.00;;;13.80;;
76867;SDS011;66168;45.478;11.060;2024-01-30T03:01:44;17.90;;;11.10;;
76867;SDS011;66168;45.478;11.060;2024-01-30T03:04:12;18.10;;;11.40;;
76867;SDS011;66168;45.478;11.060;2024-01-30T03:06:44;17.20;;;10.30;;
76867;SDS011;66168;45.478;11.060;2024-01-30T03:09:12;15.70;;;8.60;;
76867;SDS011;66168;45.478;11.060;2024-01-30T03:11:40;14.70;;;9.20;;
76867;SDS011;66168;45.478;11.060;2024-01-30T03:14:07;16.10;;;9.70;;
76867;SDS011;66168;45.478;11.060;2024-01-30T03:16:34;16.40;;;10.20;;
76867;SDS011;66168;45.478;11.060;2024-01-30T03:19:01;13.90;;;8.70;;
76867;SDS011;66168;45.478;11.060;2024-01-30T03:21:30;14.40;;;9.30;;
76867;SDS011;66168;45.478;11.060;2024-01-30T03:23:57;21.20;;;11.30;;
76867;SDS011;66168;45.478;11.060;2024-01-30T03:26:24;16.20;;;9.80;;
76867;SDS011;66168;45.478;11.060;2024-01-30T03:28:50;16.30;;;9.10;;
76867;SDS011;66168;45.478;11.060;2024-01-30T03:31:17;17.70;;;9.40;;
76867;SDS011;66168;45.478;11.060;2024-01-30T03:33:45;15.10;;;7.50;;
76867;SDS011;66168;45.478;11.060;2024-01-30T03:36:11;11.50;;;7.20;;
76867;SDS011;66168;45.478;11.060;2024-01-30T03:38:38;11.70;;;6.50;;
76867;SDS011;66168;45.478;11.060;2024-01-30T03:41:07;11.60;;;7.40;;
76867;SDS011;66168;45.478;11.060;2024-01-30T03:43:34;10.00;;;6.50;;
76867;SDS011;66168;45.478;11.060;2024-01-30T03:46:01;11.40;;;7.60;;
76867;SDS011;66168;45.478;11.060;2024-01-30T03:48:29;10.40;;;6.70;;
76867;SDS011;66168;45.478;11.060;2024-01-30T03:50:56;10.40;;;6.40;;
76867;SDS011;66168;45.478;11.060;2024-01-30T03:53:23;12.40;;;7.40;;
76867;SDS011;66168;45.478;11.060;2024-01-30T03:55:50;10.30;;;6.50;;
76867;SDS011;66168;45.478;11.060;2024-01-30T03:58:17;13.00;;;8.10;;
76867;SDS011;66168;45.478;11.060;2024-01-30T04:00:44;8.40;;;5.20;;
76867;SDS011;66168;45.478;11.060;2024-01-30T04:03:12;11.50;;;6.70;;
76867;SDS011;66168;45.478;11.060;2024-01-30T04:05:39;8.80;;;6.70;;
76867;SDS011;66168;45.478;11.060;2024-01-30T04:08:06;11.00;;;6.70;;
76867;SDS011;66168;45.478;11.060;2024-01-30T04:10:33;13.30;;;8.10;;
76867;SDS011;66168;45.478;11.060;2024-01-30T04:13:00;13.40;;;8.20;;
76867;SDS011;66168;45.478;11.060;2024-01-30T04:15:27;21.30;;;11.90;;
76867;SDS011;66168;45.478;11.060;2024-01-30T04:17:59;14.40;;;9.00;;
76867;SDS011;66168;45.478;11.060;2024-01-30T04:20:26;21.30;;;12.60;;
76867;SDS011;66168;45.478;11.060;2024-01-30T04:22:53;20.00;;;9.70;;
76867;SDS011;66168;45.478;11.060;2024-01-30T04:25:45;11.40;;;7.70;;
76867;SDS011;66168;45.478;11.060;2024-01-30T04:28:14;11.30;;;7.00;;
76867;SDS011;66168;45.478;11.060;2024-01-30T04:30:41;11.60;;;7.10;;
76867;SDS011;66168;45.478;11.060;2024-01-30T04:33:08;14.10;;;8.70;;
76867;SDS011;66168;45.478;11.060;2024-01-30T04:35:36;19.00;;;10.30;;
76867;SDS011;66168;45.478;11.060;2024-01-30T04:38:03;20.70;;;11.20;;
76867;SDS011;66168;45.478;11.060;2024-01-30T04:40:30;17.80;;;10.20;;
76867;SDS011;66168;45.478;11.060;2024-01-30T04:42:57;10.50;;;6.80;;
76867;SDS011;66168;45.478;11.060;2024-01-30T04:45:24;24.60;;;12.80;;
76867;SDS011;66168;45.478;11.060;2024-01-30T04:47:51;18.10;;;11.10;;
76867;SDS011;66168;45.478;11.060;2024-01-30T04:50:18;12.40;;;8.10;;
76867;SDS011;66168;45.478;11.060;2024-01-30T04:52:45;13.00;;;9.30;;
76867;SDS011;66168;45.478;11.060;2024-01-30T04:55:12;12.90;;;8.20;;
76867;SDS011;66168;45.478;11.060;2024-01-30T04:57:39;14.00;;;8.20;;
76867;SDS011;66168;45.478;11.060;2024-01-30T05:00:06;13.10;;;8.20;;
76867;SDS011;66168;45.478;11.060;2024-01-30T05:02:34;9.80;;;6.60;;
76867;SDS011;66168;45.478;11.060;2024-01-30T05:05:01;10.60;;;6.20;;
76867;SDS011;66168;45.478;11.060;2024-01-30T05:07:28;6.30;;;5.30;;
76867;SDS011;66168;45.478;11.060;2024-01-30T05:09:55;7.00;;;4.90;;
76867;SDS011;66168;45.478;11.060;2024-01-30T05:12:24;10.60;;;7.10;;
76867;SDS011;66168;45.478;11.060;2024-01-30T05:14:51;7.80;;;6.20;;
76867;SDS011;66168;45.478;11.060;2024-01-30T05:17:18;9.20;;;6.40;;
76867;SDS011;66168;45.478;11.060;2024-01-30T05:19:45;10.40;;;7.50;;
76867;SDS011;66168;45.478;11.060;2024-01-30T05:22:12;19.40;;;12.30;;
76867;SDS011;66168;45.478;11.060;2024-01-30T05:24:42;18.80;;;10.90;;
76867;SDS011;66168;45.478;11.060;2024-01-30T05:27:09;11.50;;;7.70;;
76867;SDS011;66168;45.478;11.060;2024-01-30T05:29:36;12.50;;;8.60;;
76867;SDS011;66168;45.478;11.060;2024-01-30T05:32:03;16.40;;;10.30;;
76867;SDS011;66168;45.478;11.060;2024-01-30T05:34:32;16.30;;;9.10;;
76867;SDS011;66168;45.478;11.060;2024-01-30T05:36:59;20.10;;;10.10;;
76867;SDS011;66168;45.478;11.060;2024-01-30T05:39:26;9.90;;;6.30;;
76867;SDS011;66168;45.478;11.060;2024-01-30T05:41:53;9.80;;;6.20;;
76867;SDS011;66168;45.478;11.060;2024-01-30T05:44:20;16.80;;;10.40;;
76867;SDS011;66168;45.478;11.060;2024-01-30T05:46:53;19.50;;;11.40;;
76867;SDS011;66168;45.478;11.060;2024-01-30T05:49:20;11.50;;;7.90;;
76867;SDS011;66168;45.478;11.060;2024-01-30T05:51:47;17.00;;;8.70;;
76867;SDS011;66168;45.478;11.060;2024-01-30T05:54:14;24.30;;;11.40;;
76867;SDS011;66168;45.478;11.060;2024-01-30T05:56:43;19.60;;;10.60;;
76867;SDS011;66168;45.478;11.060;2024-01-30T05:59:10;17.70;;;9.90;;
76867;SDS011;66168;45.478;11.060;2024-01-30T06:01:37;14.00;;;7.80;;
76867;SDS011;66168;45.478;11.060;2024-01-30T06:04:04;10.10;;;6.30;;
76867;SDS011;66168;45.478;11.060;2024-01-30T06:06:31;12.00;;;6.90;;
76867;SDS011;66168;45.478;11.060;2024-01-30T06:08:58;9.90;;;6.90;;
76867;SDS011;66168;45.478;11.060;2024-01-30T06:11:25;11.50;;;8.40;;
76867;SDS011;66168;45.478;11.060;2024-01-30T06:13:51;20.90;;;13.80;;
76867;SDS011;66168;45.478;11.060;2024-01-30T06:16:18;12.80;;;9.60;;
76867;SDS011;66168;45.478;11.060;2024-01-30T06:18:47;15.20;;;10.20;;
76867;SDS011;66168;45.478;11.060;2024-01-30T06:21:15;22.20;;;12.50;;
76867;SDS011;66168;45.478;11.060;2024-01-30T06:23:41;17.30;;;9.90;;
76867;SDS011;66168;45.478;11.060;2024-01-30T06:26:08;14.30;;;9.30;;
76867;SDS011;66168;45.478;11.060;2024-01-30T06:28:36;15.50;;;9.70;;
76867;SDS011;66168;45.478;11.060;2024-01-30T06:31:02;9.80;;;7.80;;
76867;SDS011;66168;45.478;11.060;2024-01-30T06:33:29;12.10;;;8.50;;
76867;SDS011;66168;45.478;11.060;2024-01-30T06:35:56;16.80;;;10.80;;
76867;SDS011;66168;45.478;11.060;2024-01-30T06:38:23;15.40;;;9.40;;
76867;SDS011;66168;45.478;11.060;2024-01-30T06:40:50;9.20;;;6.20;;
76867;SDS011;66168;45.478;11.060;2024-01-30T06:43:17;19.30;;;11.10;;
76867;SDS011;66168;45.478;11.060;2024-01-30T06:45:44;18.30;;;10.30;;
76867;SDS011;66168;45.478;11.060;2024-01-30T06:48:11;14.40;;;8.80;;
76867;SDS011;66168;45.478;11.060;2024-01-30T06:50:38;17.40;;;8.80;;
76867;SDS011;66168;45.478;11.060;2024-01-30T06:53:05;15.00;;;8.40;;
76867;SDS011;66168;45.478;11.060;2024-01-30T06:55:31;17.50;;;8.90;;
76867;SDS011;66168;45.478;11.060;2024-01-30T06:57:58;14.60;;;8.70;;
76867;SDS011;66168;45.478;11.060;2024-01-30T07:00:25;19.20;;;9.40;;
76867;SDS011;66168;45.478;11.060;2024-01-30T07:02:52;14.30;;;8.10;;
76867;SDS011;66168;45.478;11.060;2024-01-30T07:05:19;22.30;;;12.60;;
76867;SDS011;66168;45.478;11.060;2024-01-30T07:07:48;18.50;;;10.80;;
76867;SDS011;66168;45.478;11.060;2024-01-30T07:10:15;16.20;;;10.30;;
76867;SDS011;66168;45.478;11.060;2024-01-30T07:12:42;14.90;;;9.80;;
76867;SDS011;66168;45.478;11.060;2024-01-30T07:15:09;17.60;;;9.20;;
76867;SDS011;66168;45.478;11.060;2024-01-30T07:17:36;21.50;;;10.00;;
76867;SDS011;66168;45.478;11.060;2024-01-30T07:20:04;17.20;;;8.70;;
76867;SDS011;66168;45.478;11.060;2024-01-30T07:22:33;12.60;;;7.50;;
76867;SDS011;66168;45.478;11.060;2024-01-30T07:25:00;18.10;;;9.60;;
76867;SDS011;66168;45.478;11.060;2024-01-30T07:27:27;13.30;;;9.70;;
76867;SDS011;66168;45.478;11.060;2024-01-30T07:29:54;14.00;;;8.20;;
76867;SDS011;66168;45.478;11.060;2024-01-30T07:32:21;10.90;;;7.70;;
76867;SDS011;66168;45.478;11.060;2024-01-30T07:34:48;10.20;;;7.50;;
76867;SDS011;66168;45.478;11.060;2024-01-30T07:37:32;9.20;;;7.20;;
76867;SDS011;66168;45.478;11.060;2024-01-30T07:39:59;17.70;;;11.60;;
76867;SDS011;66168;45.478;11.060;2024-01-30T07:42:26;14.60;;;10.30;;
76867;SDS011;66168;45.478;11.060;2024-01-30T07:44:53;13.30;;;9.10;;
76867;SDS011;66168;45.478;11.060;2024-01-30T07:47:20;12.20;;;8.90;;
76867;SDS011;66168;45.478;11.060;2024-01-30T07:49:47;12.90;;;8.80;;
76867;SDS011;66168;45.478;11.060;2024-01-30T07:52:14;15.00;;;9.50;;
76867;SDS011;66168;45.478;11.060;2024-01-30T07:54:41;20.90;;;11.80;;
76867;SDS011;66168;45.478;11.060;2024-01-30T07:57:08;14.20;;;9.40;;
76867;SDS011;66168;45.478;11.060;2024-01-30T07:59:36;17.40;;;10.10;;
76867;SDS011;66168;45.478;11.060;2024-01-30T08:02:03;13.70;;;7.90;;
76867;SDS011;66168;45.478;11.060;2024-01-30T08:04:30;15.00;;;9.60;;
76867;SDS011;66168;45.478;11.060;2024-01-30T08:06:57;17.90;;;11.40;;
76867;SDS011;66168;45.478;11.060;2024-01-30T08:09:24;15.90;;;10.20;;
76867;SDS011;66168;45.478;11.060;2024-01-30T08:11:51;12.90;;;8.70;;
76867;SDS011;66168;45.478;11.060;2024-01-30T08:14:18;12.90;;;8.60;;
76867;SDS011;66168;45.478;11.060;2024-01-30T08:16:45;17.10;;;9.60;;
76867;SDS011;66168;45.478;11.060;2024-01-30T08:19:12;15.60;;;9.60;;
76867;SDS011;66168;45.478;11.060;2024-01-30T08:21:39;16.90;;;12.60;;
76867;SDS011;66168;45.478;11.060;2024-01-30T08:24:06;14.00;;;10.00;;
76867;SDS011;66168;45.478;11.060;2024-01-30T08:26:34;22.70;;;15.70;;
76867;SDS011;66168;45.478;11.060;2024-01-30T08:29:02;15.60;;;10.80;;
76867;SDS011;66168;45.478;11.060;2024-01-30T08:31:29;15.40;;;10.80;;
76867;SDS011;66168;45.478;11.060;2024-01-30T08:33:56;16.00;;;10.80;;
76867;SDS011;66168;45.478;11.060;2024-01-30T08:36:23;19.00;;;12.50;;
76867;SDS011;66168;45.478;11.060;2024-01-30T08:38:50;23.40;;;12.40;;
76867;SDS011;66168;45.478;11.060;2024-01-30T08:41:20;17.40;;;10.70;;
76867;SDS011;66168;45.478;11.060;2024-01-30T08:43:47;13.30;;;10.10;;
76867;SDS011;66168;45.478;11.060;2024-01-30T08:46:17;13.10;;;8.40;;
76867;SDS011;66168;45.478;11.060;2024-01-30T08:48:44;10.40;;;7.20;;
76867;SDS011;66168;45.478;11.060;2024-01-30T08:51:13;13.00;;;7.70;;
76867;SDS011;66168;45.478;11.060;2024-01-30T08:53:42;14.90;;;8.90;;
76867;SDS011;66168;45.478;11.060;2024-01-30T08:56:09;19.50;;;11.80;;
76867;SDS011;66168;45.478;11.060;2024-01-30T08:58:36;13.30;;;8.40;;
76867;SDS011;66168;45.478;11.060;2024-01-30T09:01:03;17.70;;;12.30;;
76867;SDS011;66168;45.478;11.060;2024-01-30T09:03:32;13.60;;;10.50;;
76867;SDS011;66168;45.478;11.060;2024-01-30T09:05:59;12.60;;;7.90;;
76867;SDS011;66168;45.478;11.060;2024-01-30T09:08:26;12.60;;;8.30;;
76867;SDS011;66168;45.478;11.060;2024-01-30T09:10:53;15.40;;;11.50;;
76867;SDS011;66168;45.478;11.060;2024-01-30T09:13:20;19.40;;;13.50;;
76867;SDS011;66168;45.478;11.060;2024-01-30T09:15:47;20.00;;;14.00;;
76867;SDS011;66168;45.478;11.060;2024-01-30T09:18:14;21.60;;;13.90;;
76867;SDS011;66168;45.478;11.060;2024-01-30T09:20:41;17.30;;;10.90;;
76867;SDS011;66168;45.478;11.060;2024-01-30T09:23:08;12.80;;;8.10;;
76867;SDS011;66168;45.478;11.060;2024-01-30T09:25:35;16.20;;;11.50;;
76867;SDS011;66168;45.478;11.060;2024-01-30T09:28:01;14.50;;;9.30;;
76867;SDS011;66168;45.478;11.060;2024-01-30T09:30:28;18.80;;;11.10;;
76867;SDS011;66168;45.478;11.060;2024-01-30T09:32:55;13.30;;;9.20;;
76867;SDS011;66168;45.478;11.060;2024-01-30T09:35:22;23.70;;;14.40;;
76867;SDS011;66168;45.478;11.060;2024-01-30T09:37:49;17.20;;;12.00;;
76867;SDS011;66168;45.478;11.060;2024-01-30T09:40:18;16.40;;;10.80;;
76867;SDS011;66168;45.478;11.060;2024-01-30T09:42:47;17.50;;;13.00;;
76867;SDS011;66168;45.478;11.060;2024-01-30T09:45:17;15.20;;;10.10;;
76867;SDS011;66168;45.478;11.060;2024-01-30T09:47:45;15.70;;;11.60;;
76867;SDS011;66168;45.478;11.060;2024-01-30T09:50:13;21.40;;;13.30;;
76867;SDS011;66168;45.478;11.060;2024-01-30T09:52:42;17.70;;;12.00;;
76867;SDS011;66168;45.478;11.060;2024-01-30T09:55:10;16.80;;;11.30;;
76867;SDS011;66168;45.478;11.060;2024-01-30T09:57:38;19.20;;;13.50;;
76867;SDS011;66168;45.478;11.060;2024-01-30T10:00:06;14.10;;;8.40;;
76867;SDS011;66168;45.478;11.060;2024-01-30T10:02:38;18.30;;;11.70;;
76867;SDS011;66168;45.478;11.060;2024-01-30T10:05:07;18.00;;;12.50;;
76867;SDS011;66168;45.478;11.060;2024-01-30T10:07:35;19.10;;;12.60;;
76867;SDS011;66168;45.478;11.060;2024-01-30T10:10:02;19.40;;;13.20;;
76867;SDS011;66168;45.478;11.060;2024-01-30T10:12:31;14.70;;;11.10;;
76867;SDS011;66168;45.478;11.060;2024-01-30T10:14:58;26.30;;;17.10;;
76867;SDS011;66168;45.478;11.060;2024-01-30T10:17:25;25.30;;;16.80;;
76867;SDS011;66168;45.478;11.060;2024-01-30T10:19:59;18.40;;;12.80;;
76867;SDS011;66168;45.478;11.060;2024-01-30T10:22:27;18.30;;;13.00;;
76867;SDS011;66168;45.478;11.060;2024-01-30T10:24:55;22.00;;;15.90;;
76867;SDS011;66168;45.478;11.060;2024-01-30T10:27:25;23.10;;;15.80;;
76867;SDS011;66168;45.478;11.060;2024-01-30T10:29:53;22.20;;;15.20;;
76867;SDS011;66168;45.478;11.060;2024-01-30T10:32:20;20.70;;;13.80;;
76867;SDS011;66168;45.478;11.060;2024-01-30T10:34:47;14.70;;;10.30;;
76867;SDS011;66168;45.478;11.060;2024-01-30T10:37:15;21.10;;;14.40;;
76867;SDS011;66168;45.478;11.060;2024-01-30T10:39:43;20.40;;;13.60;;
76867;SDS011;66168;45.478;11.060;2024-01-30T10:42:18;23.40;;;15.90;;
76867;SDS011;66168;45.478;11.060;2024-01-30T10:44:51;19.60;;;12.70;;
76867;SDS011;66168;45.478;11.060;2024-01-30T10:47:27;24.90;;;14.60;;
76867;SDS011;66168;45.478;11.060;2024-01-30T10:49:56;23.60;;;14.70;;
76867;SDS011;66168;45.478;11.060;2024-01-30T10:52:24;21.50;;;15.90;;
76867;SDS011;66168;45.478;11.060;2024-01-30T10:54:56;16.80;;;12.00;;
76867;SDS011;66168;45.478;11.060;2024-01-30T10:57:23;25.60;;;15.80;;
76867;SDS011;66168;45.478;11.060;2024-01-30T10:59:56;21.80;;;16.10;;
76867;SDS011;66168;45.478;11.060;2024-01-30T11:02:25;23.10;;;15.10;;
76867;SDS011;66168;45.478;11.060;2024-01-30T11:04:56;21.10;;;14.90;;
76867;SDS011;66168;45.478;11.060;2024-01-30T11:07:26;20.80;;;14.90;;
76867;SDS011;66168;45.478;11.060;2024-01-30T11:12:25;21.10;;;15.80;;
76867;SDS011;66168;45.478;11.060;2024-01-30T11:15:02;24.40;;;16.20;;
76867;SDS011;66168;45.478;11.060;2024-01-30T11:20:32;22.20;;;14.70;;
76867;SDS011;66168;45.478;11.060;2024-01-30T11:22:59;19.60;;;14.30;;
76867;SDS011;66168;45.478;11.060;2024-01-30T11:25:32;31.60;;;21.10;;
76867;SDS011;66168;45.478;11.060;2024-01-30T11:28:00;23.40;;;13.20;;
76867;SDS011;66168;45.478;11.060;2024-01-30T11:33:08;21.30;;;13.80;;
76867;SDS011;66168;45.478;11.060;2024-01-30T11:35:39;15.90;;;11.00;;
76867;SDS011;66168;45.478;11.060;2024-01-30T11:38:15;16.40;;;12.10;;
76867;SDS011;66168;45.478;11.060;2024-01-30T11:40:43;22.60;;;15.30;;
76867;SDS011;66168;45.478;11.060;2024-01-30T11:43:10;23.40;;;15.40;;
76867;SDS011;66168;45.478;11.060;2024-01-30T11:45:38;22.40;;;13.80;;
76867;SDS011;66168;45.478;11.060;2024-01-30T11:48:06;20.00;;;13.30;;
76867;SDS011;66168;45.478;11.060;2024-01-30T11:50:34;25.60;;;16.70;;
76867;SDS011;66168;45.478;11.060;2024-01-30T11:53:01;16.20;;;10.20;;
76867;SDS011;66168;45.478;11.060;2024-01-30T11:55:29;24.00;;;13.10;;
76867;SDS011;66168;45.478;11.060;2024-01-30T11:58:01;26.70;;;15.80;;
76867;SDS011;66168;45.478;11.060;2024-01-30T12:00:29;24.20;;;15.40;;
76867;SDS011;66168;45.478;11.060;2024-01-30T12:02:58;25.10;;;17.20;;
76867;SDS011;66168;45.478;11.060;2024-01-30T12:05:27;18.80;;;11.90;;
76867;SDS011;66168;45.478;11.060;2024-01-30T12:07:55;27.40;;;15.10;;
76867;SDS011;66168;45.478;11.060;2024-01-30T12:10:27;15.40;;;9.80;;
76867;SDS011;66168;45.478;11.060;2024-01-30T12:12:54;28.90;;;17.00;;
76867;SDS011;66168;45.478;11.060;2024-01-30T12:15:22;31.50;;;17.80;;
76867;SDS011;66168;45.478;11.060;2024-01-30T12:17:49;21.70;;;13.00;;
76867;SDS011;66168;45.478;11.060;2024-01-30T12:20:20;30.70;;;18.20;;
76867;SDS011;66168;45.478;11.060;2024-01-30T12:22:49;24.80;;;16.30;;
76867;SDS011;66168;45.478;11.060;2024-01-30T12:25:17;22.30;;;14.90;;
76867;SDS011;66168;45.478;11.060;2024-01-30T12:27:46;28.90;;;18.40;;
76867;SDS011;66168;45.478;11.060;2024-01-30T12:30:19;16.00;;;10.70;;
76867;SDS011;66168;45.478;11.060;2024-01-30T12:32:49;27.00;;;14.80;;
76867;SDS011;66168;45.478;11.060;2024-01-30T12:35:18;24.40;;;16.00;;
76867;SDS011;66168;45.478;11.060;2024-01-30T12:37:47;26.00;;;16.70;;
76867;SDS011;66168;45.478;11.060;2024-01-30T12:40:15;24.00;;;15.50;;
76867;SDS011;66168;45.478;11.060;2024-01-30T12:42:42;17.50;;;11.50;;
76867;SDS011;66168;45.478;11.060;2024-01-30T12:45:13;31.30;;;18.00;;
76867;SDS011;66168;45.478;11.060;2024-01-30T12:47:41;23.40;;;14.60;;
76867;SDS011;66168;45.478;11.060;2024-01-30T12:50:08;19.50;;;11.10;;
76867;SDS011;66168;45.478;11.060;2024-01-30T12:52:36;20.20;;;13.50;;
76867;SDS011;66168;45.478;11.060;2024-01-30T12:55:04;24.20;;;17.10;;
76867;SDS011;66168;45.478;11.060;2024-01-30T12:57:31;25.10;;;16.10;;
76867;SDS011;66168;45.478;11.060;2024-01-30T12:59:58;24.70;;;16.70;;
76867;SDS011;66168;45.478;11.060;2024-01-30T13:02:25;23.20;;;16.00;;
76867;SDS011;66168;45.478;11.060;2024-01-30T13:04:53;22.60;;;13.40;;
76867;SDS011;66168;45.478;11.060;2024-01-30T13:07:22;26.50;;;16.10;;
76867;SDS011;66168;45.478;11.060;2024-01-30T13:09:49;27.70;;;14.80;;
76867;SDS011;66168;45.478;11.060;2024-01-30T13:12:16;29.40;;;17.90;;
76867;SDS011;66168;45.478;11.060;2024-01-30T13:14:43;16.10;;;9.60;;
76867;SDS011;66168;45.478;11.060;2024-01-30T13:17:10;19.40;;;14.20;;
76867;SDS011;66168;45.478;11.060;2024-01-30T13:19:43;26.50;;;18.50;;
76867;SDS011;66168;45.478;11.060;2024-01-30T13:22:10;16.90;;;11.40;;
76867;SDS011;66168;45.478;11.060;2024-01-30T13:24:37;17.00;;;12.60;;
76867;SDS011;66168;45.478;11.060;2024-01-30T13:27:06;27.50;;;17.00;;
76867;SDS011;66168;45.478;11.060;2024-01-30T13:29:33;21.90;;;14.90;;
76867;SDS011;66168;45.478;11.060;2024-01-30T13:32:00;21.20;;;15.20;;
76867;SDS011;66168;45.478;11.060;2024-01-30T13:34:27;21.10;;;13.80;;
76867;SDS011;66168;45.478;11.060;2024-01-30T13:36:54;21.60;;;13.50;;
76867;SDS011;66168;45.478;11.060;2024-01-30T13:39:21;20.40;;;14.70;;
76867;SDS011;66168;45.478;11.060;2024-01-30T13:41:50;28.80;;;16.60;;
76867;SDS011;66168;45.478;11.060;2024-01-30T13:44:17;24.90;;;15.70;;
76867;SDS011;66168;45.478;11.060;2024-01-30T13:46:45;24.10;;;14.50;;
76867;SDS011;66168;45.478;11.060;2024-01-30T13:49:12;25.70;;;16.90;;
76867;SDS011;66168;45.478;11.060;2024-01-30T13:51:40;25.20;;;16.40;;
76867;SDS011;66168;45.478;11.060;2024-01-30T13:54:07;20.50;;;12.60;;
76867;SDS011;66168;45.478;11.060;2024-01-30T13:56:33;20.10;;;12.90;;
76867;SDS011;66168;45.478;11.060;2024-01-30T13:59:00;22.00;;;12.80;;
76867;SDS011;66168;45.478;11.060;2024-01-30T14:01:33;26.20;;;15.00;;
76867;SDS011;66168;45.478;11.060;2024-01-30T14:04:07;21.40;;;13.60;;
76867;SDS011;66168;45.478;11.060;2024-01-30T14:06:38;24.40;;;14.60;;
76867;SDS011;66168;45.478;11.060;2024-01-30T14:09:16;22.60;;;14.10;;
76867;SDS011;66168;45.478;11.060;2024-01-30T14:11:42;22.00;;;12.50;;
76867;SDS011;66168;45.478;11.060;2024-01-30T14:14:09;22.60;;;14.40;;
76867;SDS011;66168;45.478;11.060;2024-01-30T14:16:36;21.70;;;13.70;;
76867;SDS011;66168;45.478;11.060;2024-01-30T14:19:03;23.90;;;13.40;;
76867;SDS011;66168;45.478;11.060;2024-01-30T14:21:30;23.60;;;14.50;;
76867;SDS011;66168;45.478;11.060;2024-01-30T14:23:57;23.50;;;14.50;;
76867;SDS011;66168;45.478;11.060;2024-01-30T14:26:23;26.20;;;14.40;;
76867;SDS011;66168;45.478;11.060;2024-01-30T14:28:50;25.80;;;15.10;;